createdAt,value
2019-05-12T00:02:17.878Z,17.25
2019-05-12T00:04:48.847Z,17.73
2019-05-12T00:07:18.061Z,18.75
2019-05-12T00:09:47.965Z,19.23
2019-05-12T00:12:18.459Z,19.47
2019-05-12T00:14:48.536Z,19.13
2019-05-12T00:17:18.757Z,19.57
2019-05-12T00:19:48.071Z,20.47
2019-05-12T00:22:18.791Z,20.27
2019-05-12T00:24:47.997Z,20.50
2019-05-12T00:27:21.771Z,21.97
2019-05-12T00:29:53.684Z,22.62
2019-05-12T00:32:22.755Z,21.87
2019-05-12T00:34:51.846Z,22.52
2019-05-12T00:37:20.915Z,22.93
2019-05-12T00:39:49.981Z,24.10
2019-05-12T00:42:19.026Z,23.50
2019-05-12T00:44:48.095Z,23.83
2019-05-12T00:47:18.756Z,23.73
2019-05-12T00:49:48.577Z,23.35
2019-05-12T00:52:18.837Z,21.90
2019-05-12T00:54:48.368Z,21.80
2019-05-12T00:57:18.162Z,23.47
2019-05-12T00:59:47.817Z,24.57
2019-05-12T01:02:18.286Z,22.30
2019-05-12T01:04:48.723Z,22.55
2019-05-12T01:07:18.318Z,22.45
2019-05-12T01:09:49.112Z,23.50
2019-05-12T01:12:18.291Z,23.95
2019-05-12T01:14:47.884Z,23.87
2019-05-12T01:17:17.739Z,21.20
2019-05-12T01:22:54.724Z,24.53
2019-05-12T01:25:23.758Z,23.77
2019-05-12T01:30:35.648Z,24.43
2019-05-12T01:39:08.420Z,23.83
2019-05-12T01:41:38.928Z,22.93
2019-05-12T01:44:08.888Z,24.20
2019-05-12T01:46:38.366Z,22.53
2019-05-12T01:49:08.259Z,23.27
2019-05-12T01:51:38.454Z,22.37
2019-05-12T01:54:14.442Z,23.03
2019-05-12T01:56:38.461Z,23.12
2019-05-12T01:59:08.199Z,21.30
2019-05-12T02:01:38.823Z,22.83
2019-05-12T02:04:08.208Z,22.83
2019-05-12T02:06:38.715Z,21.60
2019-05-12T02:09:09.655Z,22.63
2019-05-12T02:11:38.754Z,21.90
2019-05-12T02:14:09.228Z,21.52
2019-05-12T02:16:38.873Z,22.37
2019-05-12T02:19:09.029Z,22.10
2019-05-12T02:21:38.399Z,22.43
2019-05-12T02:24:07.945Z,21.00
2019-05-12T02:26:38.233Z,21.43
2019-05-12T02:29:08.008Z,21.42
2019-05-12T02:31:39.759Z,20.50
2019-05-12T02:34:07.836Z,21.17
2019-05-12T02:39:09.796Z,20.57
2019-05-12T02:41:39.030Z,20.17
2019-05-12T02:44:08.094Z,21.23
2019-05-12T02:46:37.220Z,21.07
2019-05-12T02:49:06.344Z,19.13
2019-05-12T02:51:35.852Z,20.47
2019-05-12T02:59:26.117Z,22.67
2019-05-12T03:01:58.678Z,20.30
2019-05-12T03:04:27.868Z,20.93
2019-05-12T03:06:57.111Z,22.70
2019-05-12T03:09:26.182Z,20.30
2019-05-12T03:11:55.871Z,20.57
2019-05-12T03:14:25.369Z,21.30
2019-05-12T03:16:54.630Z,20.77
2019-05-12T03:22:14.155Z,19.50
2019-05-12T03:27:26.771Z,19.87
2019-05-12T03:29:55.903Z,20.93
2019-05-12T03:32:27.532Z,21.20
2019-05-12T03:37:38.822Z,20.00
2019-05-12T03:40:08.270Z,21.03
2019-05-12T03:42:49.328Z,18.75
2019-05-12T03:51:26.708Z,21.00
2019-05-12T05:03:46.331Z,14.45
2019-05-12T05:54:10.746Z,10.57
2019-05-12T06:14:59.858Z,10.90
2019-05-12T06:31:44.215Z,9.63
2019-05-12T06:34:18.788Z,8.93
2019-05-12T06:50:47.084Z,9.40
2019-05-12T06:53:20.354Z,9.17
2019-05-12T06:55:58.766Z,9.20
2019-05-12T07:01:33.446Z,10.13
2019-05-12T07:13:25.001Z,7.80
2019-05-12T07:15:54.421Z,8.23
2019-05-12T07:18:32.126Z,7.87
2019-05-12T07:20:54.488Z,8.40
2019-05-12T07:23:29.941Z,8.73
2019-05-12T07:28:40.369Z,6.23
2019-05-12T07:47:46.990Z,5.87
2019-05-12T07:53:13.775Z,6.17
2019-05-12T07:55:47.581Z,6.53
2019-05-12T08:03:59.996Z,6.27
2019-05-12T08:09:43.134Z,6.57
2019-05-12T08:27:34.037Z,7.07
2019-05-12T08:33:03.869Z,7.57
2019-05-12T08:35:34.804Z,6.30
2019-05-12T08:38:10.159Z,7.00
2019-05-12T08:43:57.361Z,7.80
2019-05-12T08:46:24.243Z,7.20
2019-05-12T08:49:00.096Z,7.77
2019-05-12T08:54:15.814Z,7.87
2019-05-12T08:59:24.990Z,8.00
2019-05-12T09:04:51.292Z,7.50
2019-05-12T09:07:18.378Z,6.83
2019-05-12T09:12:36.893Z,6.87
2019-05-12T09:15:08.408Z,7.87
2019-05-12T09:17:49.198Z,6.97
2019-05-12T09:23:05.525Z,7.80
2019-05-12T09:25:39.350Z,7.10
2019-05-12T09:28:05.422Z,7.30
2019-05-12T09:30:34.654Z,6.53
2019-05-12T09:33:04.244Z,6.70
2019-05-12T09:35:39.103Z,6.97
2019-05-12T09:40:45.866Z,5.87
2019-05-12T09:43:14.946Z,5.77
2019-05-12T09:48:57.635Z,6.50
2019-05-12T09:57:18.278Z,5.85
2019-05-12T09:59:55.428Z,5.43
2019-05-12T10:10:47.611Z,5.37
2019-05-12T10:13:20.337Z,4.10
2019-05-12T10:15:48.236Z,4.53
2019-05-12T10:21:15.519Z,4.80
2019-05-12T10:26:41.168Z,4.50
2019-05-12T10:29:17.571Z,4.72
2019-05-12T10:31:44.372Z,4.45
2019-05-12T10:40:13.921Z,4.10
2019-05-12T10:42:46.016Z,3.98
2019-05-12T10:48:04.385Z,4.22
2019-05-12T10:50:34.251Z,4.10
2019-05-12T10:53:04.494Z,4.25
2019-05-12T10:55:34.137Z,4.00
2019-05-12T10:58:06.816Z,3.92
2019-05-12T11:00:34.491Z,3.90
2019-05-12T11:06:02.209Z,4.53
2019-05-12T11:08:24.820Z,4.30
2019-05-12T11:10:57.621Z,4.08
2019-05-12T11:13:25.856Z,4.37
2019-05-12T11:18:37.706Z,4.05
2019-05-12T11:21:06.767Z,4.33
2019-05-12T11:23:35.818Z,3.87
2019-05-12T11:26:05.291Z,3.72
2019-05-12T11:28:34.419Z,3.15
2019-05-12T11:31:03.542Z,3.10
2019-05-12T11:33:34.113Z,2.92
2019-05-12T11:36:04.366Z,3.02
2019-05-12T11:41:30.062Z,1.95
2019-05-12T11:43:59.115Z,1.67
2019-05-12T11:46:28.177Z,1.98
2019-05-12T11:48:57.902Z,1.85
2019-05-12T11:51:30.526Z,1.80
2019-05-12T11:54:03.620Z,1.95
2019-05-12T11:56:29.791Z,2.00
2019-05-12T11:58:58.841Z,1.50
2019-05-12T12:01:30.110Z,1.65
2019-05-12T12:03:59.175Z,1.42
2019-05-12T12:06:36.985Z,1.63
2019-05-12T12:09:09.265Z,1.80
2019-05-12T12:11:38.059Z,1.80
2019-05-12T12:14:10.486Z,1.42
2019-05-12T12:16:42.063Z,2.00
2019-05-12T12:19:09.653Z,1.70
2019-05-12T12:21:40.383Z,1.90
2019-05-12T12:32:33.950Z,1.67
2019-05-12T12:35:07.326Z,1.60
2019-05-12T12:37:34.327Z,1.60
2019-05-12T12:40:04.372Z,1.57
2019-05-12T12:45:44.103Z,1.60
2019-05-12T12:51:10.469Z,1.67
2019-05-12T12:53:39.530Z,1.57
2019-05-12T12:56:08.590Z,1.92
2019-05-12T13:01:22.140Z,1.90
2019-05-12T13:15:23.619Z,1.67
2019-05-12T13:17:52.594Z,2.08
2019-05-12T13:23:11.182Z,1.98
2019-05-12T13:25:48.427Z,2.20
2019-05-12T13:28:18.465Z,2.25
2019-05-12T13:33:25.026Z,2.05
2019-05-12T13:35:55.724Z,2.15
2019-05-12T13:38:24.763Z,1.82
2019-05-12T13:40:54.197Z,2.37
2019-05-12T13:43:23.873Z,2.40
2019-05-12T14:00:35.922Z,2.30
2019-05-12T14:05:53.048Z,2.27
2019-05-12T14:08:18.775Z,2.00
2019-05-12T14:13:37.307Z,2.50
2019-05-12T14:16:07.008Z,2.60
2019-05-12T14:18:36.470Z,2.10
2019-05-12T14:23:48.615Z,2.08
2019-05-12T14:38:08.228Z,1.80
2019-05-12T14:40:37.414Z,2.02
2019-05-12T14:43:10.217Z,1.60
2019-05-12T14:51:03.467Z,1.67
2019-05-12T14:56:15.402Z,1.60
2019-05-12T14:58:44.525Z,2.05
2019-05-12T15:04:05.076Z,2.10
2019-05-12T15:06:40.737Z,1.72
2019-05-12T15:09:21.866Z,1.70
2019-05-12T15:11:51.181Z,1.90
2019-05-12T15:14:24.496Z,2.00
2019-05-12T15:16:51.356Z,1.90
2019-05-12T15:22:12.413Z,1.90
2019-05-12T15:27:45.035Z,1.80
2019-05-12T15:30:20.337Z,2.00
2019-05-12T15:32:41.909Z,2.27
2019-05-12T15:40:55.851Z,1.90
2019-05-12T15:49:27.559Z,2.00
2019-05-12T15:52:06.255Z,1.87
2019-05-12T15:54:36.269Z,1.90
2019-05-12T16:02:38.714Z,1.80
2019-05-12T16:05:08.476Z,2.17
2019-05-12T16:07:39.562Z,1.60
2019-05-12T16:13:07.516Z,1.50
2019-05-12T16:15:36.826Z,1.85
2019-05-12T16:18:09.980Z,1.50
2019-05-12T16:20:36.910Z,1.70
2019-05-12T16:23:06.035Z,1.60
2019-05-12T16:25:35.234Z,1.60
2019-05-12T16:31:05.024Z,1.47
2019-05-12T16:33:44.590Z,1.67
2019-05-12T16:36:14.637Z,1.60
2019-05-12T16:38:44.497Z,1.92
2019-05-12T16:41:14.383Z,1.80
2019-05-12T16:43:44.182Z,1.50
2019-05-12T16:46:14.230Z,1.40
2019-05-12T16:48:48.195Z,1.80
2019-05-12T16:51:14.389Z,1.82
2019-05-12T16:53:43.707Z,1.40
2019-05-12T16:56:14.715Z,1.70
2019-05-12T16:58:44.027Z,1.40
2019-05-12T17:01:14.195Z,1.92
2019-05-12T17:06:28.561Z,1.80
2019-05-12T17:08:56.483Z,1.60
2019-05-12T17:11:30.008Z,1.72
2019-05-12T17:14:01.623Z,1.75
2019-05-12T17:16:27.162Z,1.70
2019-05-12T17:19:00.076Z,1.65
2019-05-12T17:21:33.575Z,2.10
2019-05-12T17:24:04.004Z,1.60
2019-05-12T17:29:16.353Z,1.87
2019-05-12T17:31:45.436Z,2.20
2019-05-12T17:34:14.557Z,2.02
2019-05-12T17:36:44.823Z,2.17
2019-05-12T17:42:03.247Z,1.87
2019-05-12T17:44:36.962Z,2.30
2019-05-12T17:47:03.754Z,2.08
2019-05-12T17:49:33.047Z,2.17
2019-05-12T17:52:12.291Z,2.45
2019-05-12T17:54:34.131Z,2.10
2019-05-12T17:57:04.028Z,2.40
2019-05-12T17:59:33.400Z,2.30
2019-05-12T18:02:05.763Z,2.85
2019-05-12T18:04:37.035Z,2.62
2019-05-12T18:07:12.541Z,2.72
2019-05-12T18:09:35.067Z,2.70
2019-05-12T18:12:04.395Z,3.00
2019-05-12T18:14:44.695Z,2.98
2019-05-12T18:17:08.773Z,3.00
2019-05-12T18:19:35.203Z,3.10
2019-05-12T18:22:09.042Z,2.70
2019-05-12T18:24:35.110Z,3.45
2019-05-12T18:27:07.532Z,3.40
2019-05-12T18:29:35.026Z,3.40
2019-05-12T18:32:04.605Z,3.40
2019-05-12T18:34:34.937Z,3.55
2019-05-12T18:37:05.367Z,3.30
2019-05-12T18:39:34.675Z,3.52
2019-05-12T18:42:03.906Z,3.62
2019-05-12T18:44:33.047Z,3.67
2019-05-12T18:47:04.344Z,3.43
2019-05-12T18:49:34.242Z,3.72
2019-05-12T18:52:03.905Z,3.80
2019-05-12T18:54:34.531Z,3.98
2019-05-12T18:57:07.263Z,4.00
2019-05-12T18:59:34.538Z,3.80
2019-05-12T19:02:03.914Z,3.63
2019-05-12T19:04:34.008Z,4.27
2019-05-12T19:07:03.952Z,4.30
2019-05-12T19:09:33.565Z,3.97
2019-05-12T19:12:02.655Z,4.33
2019-05-12T19:14:36.880Z,4.27
2019-05-12T19:17:03.586Z,4.10
2019-05-12T19:19:32.816Z,4.30
2019-05-12T19:22:09.097Z,4.43
2019-05-12T19:24:36.078Z,4.27
2019-05-12T19:27:04.438Z,4.23
2019-05-12T19:29:38.261Z,5.00
2019-05-12T19:32:04.728Z,4.10
2019-05-12T19:34:37.398Z,4.30
2019-05-12T19:37:06.237Z,4.33
2019-05-12T19:39:35.462Z,3.87
2019-05-12T19:42:04.689Z,3.80
2019-05-12T19:44:34.220Z,4.10
2019-05-12T19:47:03.541Z,3.87
2019-05-12T19:49:46.867Z,3.80
2019-05-12T19:52:03.614Z,3.67
2019-05-12T19:54:36.334Z,3.70
2019-05-12T19:57:03.909Z,4.10
2019-05-12T19:59:34.112Z,3.60
2019-05-12T20:02:04.042Z,3.83
2019-05-12T20:04:37.055Z,4.00
2019-05-12T20:07:04.325Z,3.77
2019-05-12T20:09:33.450Z,4.03
2019-05-12T20:12:08.390Z,4.40
2019-05-12T20:14:34.372Z,3.20
2019-05-12T20:17:03.561Z,3.30
2019-05-12T20:22:15.958Z,2.97
2019-05-12T20:24:45.051Z,2.90
2019-05-12T20:27:17.072Z,2.70
2019-05-12T20:29:44.952Z,2.33
2019-05-12T20:32:14.043Z,2.33
2019-05-12T20:34:49.183Z,2.30
2019-05-12T20:37:16.746Z,2.07
2019-05-12T20:39:44.754Z,2.23
2019-05-12T20:42:14.224Z,2.20
2019-05-12T20:44:43.765Z,2.20
2019-05-12T20:47:14.002Z,2.10
2019-05-12T20:49:50.895Z,1.83
2019-05-12T20:52:14.415Z,2.17
2019-05-12T20:54:44.178Z,2.00
2019-05-12T20:57:14.155Z,1.90
2019-05-12T20:59:44.622Z,1.97
2019-05-12T21:02:14.186Z,1.77
2019-05-12T21:04:44.362Z,1.80
2019-05-12T21:07:21.542Z,1.70
2019-05-12T21:09:44.270Z,1.90
2019-05-12T21:12:13.839Z,1.50
2019-05-12T21:14:51.660Z,1.50
2019-05-12T21:17:15.782Z,1.50
2019-05-12T21:19:55.619Z,1.40
2019-05-12T21:22:15.205Z,1.60
2019-05-12T21:24:44.725Z,1.50
2019-05-12T21:27:18.261Z,1.50
2019-05-12T21:29:44.558Z,1.53
2019-05-12T21:32:16.638Z,1.67
2019-05-12T21:34:44.498Z,1.40
2019-05-12T21:37:14.064Z,1.50
2019-05-12T21:39:49.187Z,1.50
2019-05-12T21:42:14.107Z,1.30
2019-05-12T21:44:46.982Z,1.20
2019-05-12T21:47:14.017Z,1.60
2019-05-12T21:49:48.627Z,1.17
2019-05-12T21:52:13.775Z,1.47
2019-05-12T21:54:43.901Z,1.30
2019-05-12T21:57:13.147Z,1.60
2019-05-12T21:59:42.356Z,1.50
2019-05-12T22:02:11.593Z,1.23
2019-05-12T22:04:41.517Z,1.60
2019-05-12T22:07:11.777Z,1.60
2019-05-12T22:09:45.202Z,1.30
2019-05-12T22:12:11.646Z,1.40
2019-05-12T22:14:43.215Z,1.40
2019-05-12T22:17:13.580Z,1.40
2019-05-12T22:19:44.363Z,1.40
2019-05-12T22:22:13.565Z,1.30
2019-05-12T22:24:44.186Z,1.20
2019-05-12T22:27:21.780Z,1.20
2019-05-12T22:29:44.128Z,1.20
2019-05-12T22:32:13.779Z,1.50
2019-05-12T22:34:44.626Z,1.53
2019-05-12T22:37:13.809Z,1.47
2019-05-12T22:39:44.515Z,1.30
2019-05-12T22:42:20.185Z,1.17
2019-05-12T22:44:44.410Z,1.50
2019-05-12T22:47:17.411Z,1.20
2019-05-12T22:49:44.425Z,1.20
2019-05-12T22:52:13.772Z,1.07
2019-05-12T22:54:46.881Z,1.10
2019-05-12T22:57:13.755Z,1.00
2019-05-12T22:59:44.865Z,1.20
2019-05-12T23:02:16.062Z,1.10
2019-05-12T23:04:44.444Z,1.10
2019-05-12T23:07:18.825Z,1.20
2019-05-12T23:09:44.184Z,1.20
2019-05-12T23:12:18.159Z,0.80
2019-05-12T23:14:44.427Z,1.30
2019-05-12T23:17:13.838Z,1.20
2019-05-12T23:19:51.251Z,0.90
2019-05-12T23:22:14.226Z,1.00
2019-05-12T23:24:44.124Z,1.07
2019-05-12T23:27:13.686Z,0.90
2019-05-12T23:29:44.391Z,0.87
2019-05-12T23:32:16.812Z,0.90
2019-05-12T23:34:54.022Z,0.87
2019-05-12T23:37:16.638Z,1.00
2019-05-12T23:39:45.711Z,0.83
2019-05-12T23:42:14.758Z,0.80
2019-05-12T23:44:44.311Z,1.00
2019-05-12T23:47:13.459Z,1.00
2019-05-12T23:49:44.394Z,0.90
2019-05-12T23:52:14.029Z,0.90
2019-05-12T23:54:44.461Z,0.90
2019-05-12T23:57:15.542Z,0.90
2019-05-12T23:59:44.330Z,0.90
